Time;durP1;ratioP1;P1;durP2;ratioP2;P2;SDS_P1;SDS_P2;PMS_P1;PMS_P2;Temp;Humidity;BMP_temperature;BMP_pressure;BME280_temperature;BME280_humidity;BME280_pressure;Samples;Min_cycle;Max_cycle;Signal;HPM_P1;HPM_P2
2022/06/18 00:01:35;;;;;;;23.95;18.98;;;22.30;99.90;;;;;;5052020;28;20054;-70
2022/06/18 00:04:03;;;;;;;14.07;7.22;;;22.30;99.90;;;;;;5053202;28;20048;-70
2022/06/18 00:06:32;;;;;;;9.60;5.30;;;22.20;99.90;;;;;;5052782;28;20080;-68
2022/06/18 00:08:59;;;;;;;8.43;4.88;;;22.20;99.90;;;;;;5051630;28;20045;-70
2022/06/18 00:14:11;;;;;;;9.48;5.05;;;22.10;99.90;;;;;;5053152;28;20120;-69
2022/06/18 00:16:38;;;;;;;11.40;5.50;;;22.10;99.90;;;;;;5052743;28;20045;-69
2022/06/18 00:19:05;;;;;;;7.65;4.90;;;22.00;99.90;;;;;;5051593;28;20063;-69
2022/06/18 00:21:32;;;;;;;11.20;5.28;;;22.00;99.90;;;;;;5053803;28;20373;-69
2022/06/18 00:23:59;;;;;;;9.93;5.68;;;21.90;99.90;;;;;;5052035;28;20045;-69
2022/06/18 00:26:26;;;;;;;10.80;5.00;;;21.90;99.90;;;;;;5052626;28;20494;-69
2022/06/18 00:28:53;;;;;;;10.82;5.28;;;21.80;99.90;;;;;;5052891;28;20503;-69
2022/06/18 00:31:20;;;;;;;10.77;5.63;;;21.80;99.90;;;;;;5052934;28;20037;-69
2022/06/18 00:33:47;;;;;;;10.88;6.13;;;21.70;99.90;;;;;;5053474;28;20048;-69
2022/06/18 00:36:16;;;;;;;11.38;5.97;;;21.60;99.90;;;;;;5054695;28;20049;-69
2022/06/18 00:38:44;;;;;;;9.52;5.20;;;21.60;99.90;;;;;;5039537;28;20051;-69
2022/06/18 00:41:18;;;;;;;10.30;5.45;;;21.50;99.90;;;;;;5039220;28;20045;-70
2022/06/18 00:43:55;;;;;;;9.23;5.22;;;21.50;99.90;;;;;;5039334;28;20400;-69
2022/06/18 00:46:45;;;;;;;13.70;5.65;;;21.40;99.90;;;;;;5059686;28;20049;-70
2022/06/18 00:49:21;;;;;;;9.93;4.72;;;21.40;99.90;;;;;;5057970;28;20094;-69
2022/06/18 00:51:56;;;;;;;9.68;5.38;;;21.40;99.90;;;;;;5058879;28;20575;-69
2022/06/18 00:54:30;;;;;;;8.55;5.75;;;21.30;99.90;;;;;;5056954;28;20047;-70
2022/06/18 00:57:08;;;;;;;9.57;5.65;;;21.30;99.90;;;;;;5055917;28;20139;-69
2022/06/18 00:59:46;;;;;;;10.27;5.93;;;21.30;99.90;;;;;;5039612;28;20056;-69
2022/06/18 01:02:18;;;;;;;10.80;5.60;;;21.20;99.90;;;;;;5055898;28;20044;-69
2022/06/18 01:04:45;;;;;;;12.90;6.00;;;21.20;99.90;;;;;;5054869;28;20049;-70
2022/06/18 01:07:23;;;;;;;6.47;5.25;;;21.20;99.90;;;;;;5054959;28;20048;-69
2022/06/18 01:09:50;;;;;;;11.07;6.13;;;21.10;99.90;;;;;;5054930;28;20041;-69
2022/06/18 01:12:17;;;;;;;9.77;5.55;;;21.10;99.90;;;;;;5055642;28;20044;-69
2022/06/18 01:14:44;;;;;;;9.55;5.55;;;21.10;99.90;;;;;;5055602;28;20064;-69
2022/06/18 01:17:11;;;;;;;12.00;6.40;;;21.00;99.90;;;;;;5054763;28;20045;-70
2022/06/18 01:19:46;;;;;;;10.90;5.90;;;21.00;99.90;;;;;;5056096;28;20040;-69
2022/06/18 01:22:32;;;;;;;9.70;5.75;;;20.90;99.90;;;;;;5055489;28;20475;-69
2022/06/18 01:24:59;;;;;;;9.65;5.45;;;20.80;99.90;;;;;;5055860;28;20041;-69
2022/06/18 01:27:26;;;;;;;8.27;5.53;;;20.70;99.90;;;;;;5054582;28;20037;-69
2022/06/18 01:29:53;;;;;;;10.30;5.90;;;20.70;99.90;;;;;;5056474;28;20194;-69
2022/06/18 01:32:20;;;;;;;11.95;6.80;;;20.70;99.90;;;;;;5054170;28;20037;-68
2022/06/18 01:34:47;;;;;;;12.57;6.50;;;20.70;99.90;;;;;;5054128;28;20052;-69
2022/06/18 01:37:14;;;;;;;9.40;5.63;;;20.60;99.90;;;;;;5054019;28;20505;-69
2022/06/18 01:39:43;;;;;;;8.93;5.70;;;20.60;99.90;;;;;;5055177;28;20045;-69
2022/06/18 01:42:26;;;;;;;13.32;6.28;;;20.60;99.90;;;;;;5055173;28;20044;-69
2022/06/18 01:45:00;;;;;;;11.52;6.35;;;20.60;99.90;;;;;;5054032;28;20436;-69
2022/06/18 01:47:29;;;;;;;8.15;6.30;;;20.50;99.90;;;;;;5037417;28;20488;-70
2022/06/18 01:50:01;;;;;;;;;;;20.50;99.90;;;;;;5038157;28;20051;-69
2022/06/18 01:52:40;;;;;;;14.40;7.30;;;20.40;99.90;;;;;;5055063;28;19920;-69
2022/06/18 01:55:10;;;;;;;;;;;20.40;99.90;;;;;;5055404;28;20041;-69
2022/06/18 01:57:39;;;;;;;12.93;6.85;;;20.40;99.90;;;;;;5086308;28;19917;-69
2022/06/18 02:00:12;;;;;;;;;;;20.40;99.90;;;;;;5054402;28;20049;-69
2022/06/18 02:02:40;;;;;;;10.02;6.65;;;20.30;99.90;;;;;;5087397;28;19916;-69
2022/06/18 02:05:08;;;;;;;12.60;6.65;;;20.30;99.90;;;;;;5053541;28;20080;-69
2022/06/18 02:07:35;;;;;;;11.70;6.35;;;20.30;99.90;;;;;;5054460;28;20045;-69
2022/06/18 02:10:05;;;;;;;15.90;6.53;;;20.30;99.90;;;;;;5053532;28;20045;-69
2022/06/18 02:12:35;;;;;;;10.27;6.43;;;20.20;99.90;;;;;;5054496;28;20056;-69
2022/06/18 02:15:13;;;;;;;11.60;6.93;;;20.20;99.90;;;;;;5054236;28;20041;-69
2022/06/18 02:17:39;;;;;;;14.18;6.50;;;20.20;99.90;;;;;;5053354;28;20051;-69
2022/06/18 02:20:16;;;;;;;12.73;6.85;;;20.20;99.90;;;;;;5053526;28;20388;-69
2022/06/18 02:22:45;;;;;;;11.68;6.78;;;20.20;99.90;;;;;;5053268;28;20044;-69
2022/06/18 02:25:15;;;;;;;;;;;20.20;99.90;;;;;;5053661;28;20045;-69
2022/06/18 02:27:42;;;;;;;14.40;6.68;;;20.10;99.90;;;;;;5086472;28;20352;-69
2022/06/18 02:30:19;;;;;;;13.02;6.82;;;20.10;99.90;;;;;;5054541;28;20040;-68
2022/06/18 02:32:59;;;;;;;10.95;7.15;;;20.10;99.90;;;;;;5036836;28;20415;-69
2022/06/18 02:35:26;;;;;;;;;;;20.10;99.90;;;;;;5054255;28;20040;-68
2022/06/18 02:37:54;;;;;;;12.90;7.05;;;20.00;99.90;;;;;;5054305;28;19917;-69
2022/06/18 02:40:23;;;;;;;11.38;7.00;;;20.00;99.90;;;;;;5054350;28;20052;-69
2022/06/18 02:42:52;;;;;;;15.60;7.82;;;20.00;99.90;;;;;;5054190;28;20048;-69
2022/06/18 02:45:19;;;;;;;11.02;6.05;;;20.00;99.90;;;;;;5052758;28;20049;-68
2022/06/18 02:47:46;;;;;;;13.13;7.47;;;19.90;99.90;;;;;;5053822;28;20037;-68
2022/06/18 02:50:16;;;;;;;13.52;7.53;;;19.90;99.90;;;;;;5054749;28;20041;-69
2022/06/18 02:52:52;;;;;;;14.57;7.13;;;19.80;99.90;;;;;;5052986;28;20040;-68
2022/06/18 02:55:32;;;;;;;13.38;7.22;;;19.80;99.90;;;;;;5052679;28;20045;-68
2022/06/18 02:58:07;;;;;;;10.50;6.78;;;19.80;99.90;;;;;;5053044;28;20048;-68
2022/06/18 03:00:36;;;;;;;10.57;7.43;;;19.70;99.90;;;;;;5052524;28;20045;-69
2022/06/18 03:03:08;;;;;;;13.13;7.57;;;19.70;99.90;;;;;;5052830;28;20045;-69
2022/06/18 03:05:36;;;;;;;11.27;6.88;;;19.60;99.90;;;;;;5052508;28;20045;-68
2022/06/18 03:08:03;;;;;;;11.68;7.25;;;19.60;99.90;;;;;;5052619;28;20048;-69
2022/06/18 03:13:18;;;;;;;9.85;6.55;;;19.60;99.90;;;;;;5052795;28;20049;-68
2022/06/18 03:15:46;;;;;;;13.07;7.78;;;19.50;99.90;;;;;;5053394;28;20049;-69
2022/06/18 03:18:13;;;;;;;9.40;6.15;;;19.50;99.90;;;;;;5052987;28;20354;-68
2022/06/18 03:21:16;;;;;;;13.18;6.93;;;19.40;99.90;;;;;;5052196;28;20052;-68
2022/06/18 03:23:43;;;;;;;12.32;7.00;;;19.40;99.90;;;;;;5050111;28;20045;-69
2022/06/18 03:26:11;;;;;;;13.15;6.57;;;19.40;99.90;;;;;;5052055;28;20473;-69
2022/06/18 03:28:38;;;;;;;8.95;6.50;;;19.40;99.90;;;;;;5035964;28;20127;-69
2022/06/18 03:31:05;;;;;;;14.02;7.18;;;19.30;99.90;;;;;;5052415;28;20473;-69
2022/06/18 03:33:33;;;;;;;11.25;6.88;;;19.30;99.90;;;;;;5053579;28;20204;-69
2022/06/18 03:35:59;;;;;;;11.63;7.07;;;19.20;99.90;;;;;;5053455;28;20041;-69
2022/06/18 03:38:26;;;;;;;16.50;8.40;;;19.20;99.90;;;;;;5053466;28;20411;-69
2022/06/18 03:40:53;;;;;;;13.85;6.32;;;19.20;99.90;;;;;;5051958;28;20572;-67
2022/06/18 03:43:21;;;;;;;15.23;7.32;;;19.20;99.90;;;;;;5052188;28;20045;-69
2022/06/18 03:45:56;;;;;;;33.17;26.98;;;19.20;99.90;;;;;;5035747;28;20045;-72
2022/06/18 03:48:45;;;;;;;30.27;24.27;;;19.20;99.90;;;;;;5069179;28;20080;-68
2022/06/18 03:51:12;;;;;;;14.95;11.00;;;19.20;99.90;;;;;;5054256;28;20056;-68
2022/06/18 03:53:40;;;;;;;12.88;9.65;;;19.20;99.90;;;;;;5053346;28;20037;-68
2022/06/18 03:56:08;;;;;;;16.67;8.27;;;19.20;99.90;;;;;;5052980;28;20045;-68
2022/06/18 03:58:35;;;;;;;15.25;8.25;;;19.20;99.90;;;;;;5051721;28;20061;-68
2022/06/18 04:01:02;;;;;;;15.70;9.45;;;19.10;99.90;;;;;;5052959;28;20056;-68
2022/06/18 04:03:29;;;;;;;13.63;7.55;;;19.20;99.90;;;;;;5051703;28;20476;-68
2022/06/18 04:05:56;;;;;;;11.07;7.00;;;19.20;99.90;;;;;;5052784;28;20091;-68
2022/06/18 04:08:23;;;;;;;13.10;7.10;;;19.10;99.90;;;;;;5051851;28;20488;-68
2022/06/18 04:10:50;;;;;;;10.38;7.00;;;19.10;99.90;;;;;;5053970;28;20045;-69
2022/06/18 04:13:17;;;;;;;10.20;7.10;;;19.20;99.90;;;;;;5057427;28;20060;-68
2022/06/18 04:15:45;;;;;;;10.10;7.30;;;19.10;99.90;;;;;;5055647;28;20060;-69
2022/06/18 04:18:14;;;;;;;13.27;7.00;;;19.10;99.90;;;;;;5056825;28;20051;-68
2022/06/18 04:20:41;;;;;;;16.52;7.57;;;19.20;99.90;;;;;;5055545;28;20076;-68
2022/06/18 04:23:10;;;;;;;18.33;7.38;;;19.20;99.90;;;;;;5056571;28;20068;-68
2022/06/18 04:25:37;;;;;;;11.75;6.82;;;19.30;99.90;;;;;;5056207;28;20041;-68
2022/06/18 04:28:04;;;;;;;16.05;7.63;;;19.30;99.90;;;;;;5055510;28;20131;-69
2022/06/18 04:30:32;;;;;;;11.13;6.82;;;19.50;99.90;;;;;;5038785;28;20102;-68
2022/06/18 04:32:59;;;;;;;13.40;7.13;;;19.50;99.90;;;;;;5056116;28;20044;-69
2022/06/18 04:35:25;;;;;;;12.20;6.85;;;19.50;99.90;;;;;;5039100;28;20052;-69
2022/06/18 04:37:52;;;;;;;13.23;7.22;;;19.60;99.90;;;;;;5055517;28;20041;-69
2022/06/18 04:40:22;;;;;;;10.48;6.95;;;19.70;99.90;;;;;;5055376;28;20056;-69
2022/06/18 04:43:08;;;;;;;;;;;19.70;99.90;;;;;;5057447;28;20041;-69
2022/06/18 04:45:36;;;;;;;12.32;7.13;;;19.80;99.90;;;;;;5088259;28;19927;-69
2022/06/18 04:48:04;;;;;;;14.32;7.80;;;19.80;99.90;;;;;;5055854;28;20044;-69
2022/06/18 04:50:33;;;;;;;10.50;6.88;;;19.90;99.90;;;;;;5055319;28;20036;-68
2022/06/18 04:53:00;;;;;;;;;;;20.10;99.90;;;;;;5056552;28;20052;-69
2022/06/18 04:55:26;;;;;;;12.05;7.35;;;20.10;99.90;;;;;;5055427;28;19917;-69
2022/06/18 04:57:53;;;;;;;10.93;6.00;;;20.30;99.90;;;;;;5054870;28;20045;-69
2022/06/18 05:00:20;;;;;;;9.70;6.43;;;20.40;99.90;;;;;;5055518;28;20045;-69
2022/06/18 05:02:47;;;;;;;13.85;7.60;;;20.50;99.90;;;;;;5057012;28;20041;-69
2022/06/18 05:05:21;;;;;;;11.27;6.15;;;20.60;99.90;;;;;;5038782;28;20045;-69
2022/06/18 05:07:48;;;;;;;12.73;8.38;;;20.70;99.90;;;;;;5055750;28;20052;-68
2022/06/18 05:10:15;;;;;;;10.40;7.22;;;20.80;99.90;;;;;;5055480;28;20045;-68
2022/06/18 05:12:42;;;;;;;10.10;7.13;;;20.90;99.90;;;;;;5038493;28;20048;-69
2022/06/18 05:15:09;;;;;;;13.95;7.60;;;21.10;99.90;;;;;;5056011;28;20132;-68
2022/06/18 05:17:36;;;;;;;13.85;7.88;;;21.20;99.90;;;;;;5054478;28;20044;-69
2022/06/18 05:20:09;;;;;;;13.45;7.70;;;21.40;99.90;;;;;;5055103;28;20053;-69
2022/06/18 05:22:36;;;;;;;15.00;6.85;;;21.60;99.90;;;;;;5053851;28;20476;-68
2022/06/18 05:25:03;;;;;;;13.63;7.45;;;21.70;99.90;;;;;;5054581;28;20053;-69
2022/06/18 05:27:34;;;;;;;16.52;6.80;;;21.80;99.90;;;;;;5054555;28;20041;-69
2022/06/18 05:30:01;;;;;;;18.90;7.45;;;21.90;99.90;;;;;;5054912;28;20448;-69
2022/06/18 05:32:28;;;;;;;13.30;6.53;;;21.90;99.90;;;;;;5055406;28;20040;-70
2022/06/18 05:34:55;;;;;;;13.07;6.30;;;21.80;99.90;;;;;;5055993;28;20056;-70
2022/06/18 05:37:25;;;;;;;14.10;7.70;;;21.90;99.90;;;;;;5055643;28;20048;-70
2022/06/18 05:39:52;;;;;;;9.65;5.68;;;21.80;99.90;;;;;;5056411;28;20068;-69
2022/06/18 05:42:19;;;;;;;13.90;5.57;;;21.70;99.90;;;;;;5055603;28;20041;-70
2022/06/18 05:44:46;;;;;;;17.48;6.18;;;21.70;99.90;;;;;;5055040;28;20044;-69
2022/06/18 05:47:14;;;;;;;9.73;5.72;;;21.60;99.90;;;;;;5056313;28;20049;-70
2022/06/18 05:49:42;;;;;;;;;;;21.70;99.90;;;;;;5054342;28;20076;-70
2022/06/18 05:52:09;;;;;;;11.80;6.40;;;21.60;99.90;;;;;;5055087;28;20427;-69
2022/06/18 05:54:36;;;;;;;12.93;5.75;;;21.50;99.90;;;;;;5054860;28;20044;-70
2022/06/18 05:57:03;;;;;;;12.40;5.88;;;21.50;99.90;;;;;;5053853;28;20049;-70
2022/06/18 05:59:30;;;;;;;11.98;5.97;;;21.50;99.90;;;;;;5054235;28;20041;-71
2022/06/18 06:01:57;;;;;;;13.93;5.85;;;21.70;99.90;;;;;;5053631;28;20037;-70
2022/06/18 06:04:24;;;;;;;12.02;5.00;;;21.70;99.90;;;;;;5054811;28;20086;-70
2022/06/18 06:06:52;;;;;;;7.28;4.68;;;21.70;99.90;;;;;;5053544;28;20041;-70
2022/06/18 06:12:11;;;;;;;10.93;4.60;;;21.80;99.90;;;;;;5053705;28;20052;-70
2022/06/18 06:14:39;;;;;;;7.70;5.13;;;21.80;99.90;;;;;;5055520;28;20136;-70
2022/06/18 06:17:13;;;;;;;13.40;5.07;;;22.00;99.90;;;;;;5053408;28;20049;-70
2022/06/18 06:19:40;;;;;;;8.80;4.80;;;22.10;99.90;;;;;;5038461;28;20076;-71
2022/06/18 06:22:07;;;;;;;8.48;4.05;;;21.90;99.90;;;;;;5053502;28;20041;-71
2022/06/18 06:24:34;;;;;;;12.73;4.57;;;21.90;99.90;;;;;;5054703;28;20369;-71
2022/06/18 06:27:02;;;;;;;10.43;4.32;;;21.90;99.90;;;;;;5053131;28;20123;-71
2022/06/18 06:29:28;;;;;;;9.55;4.05;;;21.90;99.90;;;;;;5053067;28;20043;-70
2022/06/18 06:31:55;;;;;;;6.63;3.85;;;22.00;99.90;;;;;;5054413;28;20045;-69
2022/06/18 06:34:22;;;;;;;7.70;4.03;;;22.00;99.90;;;;;;5054176;28;20071;-71
2022/06/18 06:36:49;;;;;;;7.18;3.60;;;22.10;99.90;;;;;;5036853;28;20052;-71
2022/06/18 06:39:17;;;;;;;8.10;3.20;;;22.20;99.90;;;;;;5055039;28;20049;-71
2022/06/18 06:41:44;;;;;;;10.47;3.53;;;22.30;99.90;;;;;;5055022;28;20365;-72
2022/06/18 06:44:12;;;;;;;9.23;3.92;;;22.50;99.90;;;;;;5054247;28;20064;-71
2022/06/18 06:46:39;;;;;;;10.03;4.20;;;22.50;99.90;;;;;;5053187;28;20048;-71
2022/06/18 06:49:06;;;;;;;9.50;3.83;;;22.50;99.90;;;;;;5052805;28;20051;-70
2022/06/18 06:51:35;;;;;;;12.95;4.35;;;22.60;99.90;;;;;;5055273;28;20128;-70
2022/06/18 06:54:06;;;;;;;10.32;4.55;;;22.70;99.90;;;;;;5039236;28;20452;-70
2022/06/18 06:59:19;;;;;;;25.88;18.45;;;22.80;99.90;;;;;;5056831;28;20103;-71
2022/06/18 07:01:46;;;;;;;13.43;7.15;;;22.80;99.90;;;;;;5054795;28;20049;-71
2022/06/18 07:04:13;;;;;;;8.32;4.45;;;22.80;99.90;;;;;;5055592;28;20098;-71
2022/06/18 07:06:41;;;;;;;12.13;4.47;;;22.90;99.90;;;;;;5054627;28;20148;-71
2022/06/18 07:09:08;;;;;;;11.40;4.45;;;22.90;99.90;;;;;;5052302;28;20104;-70
2022/06/18 07:11:37;;;;;;;17.42;5.38;;;22.90;99.90;;;;;;5052332;28;20492;-69
2022/06/18 07:14:05;;;;;;;15.73;3.78;;;23.10;99.90;;;;;;5052274;28;20446;-69
2022/06/18 07:16:32;;;;;;;15.50;5.07;;;23.10;99.90;;;;;;5052241;28;20045;-69
2022/06/18 07:18:59;;;;;;;16.42;5.07;;;23.10;99.90;;;;;;5053648;28;20454;-69
2022/06/18 07:21:26;;;;;;;9.93;4.15;;;23.10;99.90;;;;;;5053675;28;20044;-69
2022/06/18 07:23:53;;;;;;;9.55;3.72;;;23.00;99.90;;;;;;5054016;28;20123;-69
2022/06/18 07:26:21;;;;;;;10.10;3.83;;;23.00;99.90;;;;;;5053271;28;20473;-69
2022/06/18 07:28:48;;;;;;;9.07;3.80;;;22.90;99.90;;;;;;5053461;28;20041;-69
2022/06/18 07:31:32;;;;;;;6.75;3.92;;;23.00;99.90;;;;;;5053426;28;20388;-69
2022/06/18 07:33:59;;;;;;;7.15;3.38;;;23.20;99.90;;;;;;5051986;28;20464;-69
2022/06/18 07:36:26;;;;;;;5.72;3.60;;;23.20;99.90;;;;;;5054191;28;20067;-69
2022/06/18 07:38:53;;;;;;;12.48;4.68;;;23.20;99.90;;;;;;5052056;28;20053;-69
2022/06/18 07:41:20;;;;;;;10.75;3.95;;;23.10;99.90;;;;;;5053663;28;20041;-69
2022/06/18 07:43:53;;;;;;;6.78;3.75;;;23.20;99.90;;;;;;5051991;28;20037;-69
2022/06/18 07:46:20;;;;;;;8.73;3.72;;;23.30;99.90;;;;;;5052284;28;20523;-69
2022/06/18 07:48:47;;;;;;;8.70;4.32;;;23.40;99.90;;;;;;5051753;28;20144;-69
2022/06/18 07:51:14;;;;;;;9.98;4.32;;;23.50;99.90;;;;;;5052086;28;20052;-70
2022/06/18 07:53:40;;;;;;;8.40;4.07;;;23.50;99.90;;;;;;5052593;28;20045;-69
2022/06/18 07:56:08;;;;;;;6.85;4.00;;;23.50;99.90;;;;;;5052118;28;20041;-69
2022/06/18 07:58:35;;;;;;;6.95;3.47;;;23.50;99.90;;;;;;5051547;28;20140;-69
2022/06/18 08:01:02;;;;;;;10.80;4.68;;;23.50;99.90;;;;;;5051705;28;20041;-69
2022/06/18 08:03:29;;;;;;;14.43;4.45;;;23.60;99.90;;;;;;5052868;28;20566;-69
2022/06/18 08:05:56;;;;;;;10.13;4.40;;;23.60;99.90;;;;;;5052129;28;20106;-69
2022/06/18 08:08:23;;;;;;;8.40;3.60;;;23.60;99.90;;;;;;5053625;28;20045;-69
2022/06/18 08:11:11;;;;;;;8.70;4.43;;;23.60;99.90;;;;;;5053740;28;20041;-69
2022/06/18 08:13:38;;;;;;;7.03;4.07;;;23.60;99.90;;;;;;5052943;28;20045;-68
2022/06/18 08:16:06;;;;;;;11.35;4.88;;;23.70;99.90;;;;;;5053007;28;20168;-69
2022/06/18 08:18:33;;;;;;;8.55;3.40;;;24.00;99.90;;;;;;5035203;28;20139;-69
2022/06/18 08:21:06;;;;;;;9.48;4.72;;;24.10;99.90;;;;;;5053625;28;20041;-70
2022/06/18 08:23:33;;;;;;;8.23;3.50;;;24.30;99.90;;;;;;5052213;28;20400;-75
2022/06/18 08:26:00;;;;;;;7.78;4.00;;;24.30;99.90;;;;;;5051718;28;20052;-77
2022/06/18 08:28:27;;;;;;;7.78;3.95;;;24.50;99.90;;;;;;5052353;28;20051;-75
2022/06/18 08:30:54;;;;;;;13.20;4.53;;;24.60;99.90;;;;;;5051726;28;20492;-65
2022/06/18 08:33:21;;;;;;;12.85;3.83;;;24.60;99.90;;;;;;5051382;28;20049;-67
2022/06/18 08:35:48;;;;;;;11.45;4.45;;;24.70;99.90;;;;;;5053678;28;20044;-66
2022/06/18 08:38:15;;;;;;;7.47;3.22;;;24.80;99.90;;;;;;5052454;28;20345;-66
2022/06/18 08:41:11;;;;;;;10.02;4.50;;;25.00;99.90;;;;;;5052236;28;20063;-66
2022/06/18 08:43:58;;;;;;;7.78;3.92;;;25.00;99.90;;;;;;5052383;28;20044;-65
2022/06/18 08:47:05;;;;;;;8.18;4.00;;;25.00;99.90;;;;;;5051659;28;20489;-66
2022/06/18 08:49:43;;;;;;;10.67;3.97;;;25.00;99.90;;;;;;5051489;28;20045;-65
2022/06/18 08:52:31;;;;;;;10.93;3.80;;;24.90;99.90;;;;;;5051803;28;20052;-65
2022/06/18 08:55:16;;;;;;;7.18;3.72;;;25.00;99.90;;;;;;5052488;28;20051;-64
2022/06/18 08:57:56;;;;;;;7.22;3.10;;;25.10;99.90;;;;;;5055770;28;20049;-67
2022/06/18 09:00:38;;;;;;;13.35;7.32;;;25.30;99.90;;;;;;5040324;28;20128;-68
2022/06/18 09:03:46;;;;;;;8.13;3.78;;;25.30;99.90;;;;;;5055574;28;20245;-66
2022/06/18 09:06:19;;;;;;;15.52;10.07;;;25.20;99.90;;;;;;5054592;28;20045;-65
2022/06/18 09:08:55;;;;;;;8.38;3.55;;;25.20;99.90;;;;;;5055774;28;20064;-67
2022/06/18 09:11:31;;;;;;;9.18;3.83;;;25.10;99.90;;;;;;5039945;28;20374;-65
2022/06/18 09:14:09;;;;;;;6.38;3.03;;;25.10;99.90;;;;;;5056402;28;20452;-66
2022/06/18 09:16:46;;;;;;;6.55;2.88;;;25.10;99.90;;;;;;5055926;28;20129;-62
2022/06/18 09:19:17;;;;;;;6.18;3.45;;;25.20;99.90;;;;;;5054961;28;20072;-68
2022/06/18 09:21:55;;;;;;;6.15;3.35;;;25.20;99.90;;;;;;5054964;28;20411;-68
2022/06/18 09:24:39;;;;;;;10.93;3.70;;;25.10;99.90;;;;;;5038337;28;20315;-67
2022/06/18 09:27:08;;;;;;;6.38;2.70;;;25.40;99.90;;;;;;5055374;28;20053;-68
2022/06/18 09:29:43;;;;;;;9.07;3.60;;;25.40;99.90;;;;;;5056194;28;20076;-66
2022/06/18 09:32:38;;;;;;;6.57;3.45;;;25.50;99.90;;;;;;5037851;28;20115;-66
2022/06/18 09:35:14;;;;;;;8.18;3.95;;;25.40;99.90;;;;;;5046500;28;20048;-66
2022/06/18 09:38:07;;;;;;;8.48;3.35;;;25.20;99.90;;;;;;5038379;28;20045;-65
2022/06/18 09:40:39;;;;;;;9.52;7.32;;;25.10;99.90;;;;;;5054039;28;20051;-66
2022/06/18 09:43:12;;;;;;;12.35;6.78;;;25.10;99.90;;;;;;5054494;28;20049;-66
2022/06/18 09:45:46;;;;;;;9.50;4.60;;;25.20;99.90;;;;;;5055952;28;20047;-71
2022/06/18 09:48:13;;;;;;;6.57;3.38;;;25.20;99.90;;;;;;5037455;28;20037;-64
2022/06/18 09:50:56;;;;;;;7.70;4.03;;;25.40;99.90;;;;;;5055215;28;20049;-68
2022/06/18 09:53:37;;;;;;;10.20;3.97;;;25.50;99.90;;;;;;5053538;28;20045;-66
2022/06/18 09:56:10;;;;;;;5.85;3.30;;;25.70;99.90;;;;;;5054895;28;20044;-72
2022/06/18 09:58:46;;;;;;;11.80;4.13;;;25.80;99.90;;;;;;5055498;28;20483;-69
2022/06/18 10:01:18;;;;;;;7.22;3.22;;;26.00;99.90;;;;;;5054944;28;20040;-68
2022/06/18 10:06:57;;;;;;;8.75;4.50;;;26.10;99.90;;;;;;5054158;28;20051;-70
2022/06/18 10:09:50;;;;;;;12.57;4.72;;;26.00;99.90;;;;;;5053916;28;20041;-65
2022/06/18 10:12:20;;;;;;;8.37;3.13;;;26.00;99.90;;;;;;5054219;28;20083;-63
2022/06/18 10:14:55;;;;;;;7.35;3.40;;;26.10;99.90;;;;;;5055356;28;20045;-67
2022/06/18 10:17:55;;;;;;;7.00;3.45;;;26.30;99.90;;;;;;5053792;28;20388;-66
2022/06/18 10:21:00;;;;;;;8.32;3.10;;;26.30;99.60;;;;;;5053524;28;20049;-63
2022/06/18 10:23:48;;;;;;;8.32;4.05;;;26.50;98.20;;;;;;5053051;28;20041;-68
2022/06/18 10:26:46;;;;;;;8.25;3.65;;;26.50;98.20;;;;;;5055186;28;20048;-65
2022/06/18 10:29:26;;;;;;;7.32;3.55;;;26.30;97.80;;;;;;5054449;28;20041;-64
2022/06/18 10:32:04;;;;;;;11.43;3.33;;;26.20;98.10;;;;;;5054189;28;20041;-64
2022/06/18 10:35:23;;;;;;;8.65;3.03;;;26.10;97.80;;;;;;5053734;28;20045;-63
2022/06/18 10:38:05;;;;;;;8.77;3.05;;;26.00;98.90;;;;;;5035143;28;20493;-63
2022/06/18 10:40:48;;;;;;;;;;;25.90;98.70;;;;;;5054394;28;20063;-66
2022/06/18 10:43:19;;;;;;;9.68;5.80;;;25.80;98.90;;;;;;5053136;28;19917;-65
2022/06/18 10:45:54;;;;;;;5.75;3.30;;;25.60;99.00;;;;;;5036661;28;20049;-62
2022/06/18 10:48:26;;;;;;;7.65;3.45;;;25.60;99.60;;;;;;5054479;28;20051;-66
2022/06/18 10:50:54;;;;;;;10.32;4.13;;;25.70;99.80;;;;;;5053474;28;20052;-65
2022/06/18 10:53:25;;;;;;;8.80;2.92;;;25.70;99.80;;;;;;5052822;28;20072;-67
2022/06/18 10:56:00;;;;;;;10.23;3.28;;;25.60;99.90;;;;;;5054585;28;20071;-69
2022/06/18 10:58:27;;;;;;;7.60;2.67;;;25.70;99.90;;;;;;5053326;28;20162;-64
2022/06/18 11:00:59;;;;;;;10.40;4.22;;;26.00;99.90;;;;;;5053588;28;20119;-64
2022/06/18 11:03:30;;;;;;;4.82;2.60;;;26.30;99.30;;;;;;5052756;28;20045;-68
2022/06/18 11:05:58;;;;;;;9.27;3.65;;;26.70;99.00;;;;;;5052382;28;20047;-65
2022/06/18 11:08:30;;;;;;;5.95;2.53;;;26.70;98.50;;;;;;5052770;28;20052;-64
2022/06/18 11:11:07;;;;;;;8.63;3.28;;;26.80;97.60;;;;;;5052204;28;20041;-67
2022/06/18 11:13:36;;;;;;;6.95;2.83;;;26.90;96.70;;;;;;5053262;28;20052;-70
2022/06/18 11:16:04;;;;;;;10.00;2.30;;;26.80;96.50;;;;;;5052633;28;20044;-69
2022/06/18 11:18:31;;;;;;;8.80;3.00;;;26.80;96.60;;;;;;5054350;28;20040;-67
2022/06/18 11:21:17;;;;;;;4.93;3.13;;;26.80;96.50;;;;;;5052863;28;20361;-67
2022/06/18 11:24:00;;;;;;;6.43;2.92;;;26.80;97.70;;;;;;5052160;28;20045;-67
2022/06/18 11:26:50;;;;;;;8.75;3.17;;;26.70;96.30;;;;;;5052263;28;20053;-68
2022/06/18 11:29:35;;;;;;;7.82;3.10;;;26.60;97.10;;;;;;5053000;28;20049;-66
2022/06/18 11:32:14;;;;;;;7.28;3.03;;;26.60;96.30;;;;;;5053084;28;20053;-66
2022/06/18 11:34:50;;;;;;;7.70;2.90;;;26.50;96.80;;;;;;5052042;28;20545;-64
2022/06/18 11:37:22;;;;;;;9.18;2.80;;;26.70;97.20;;;;;;5052244;28;20075;-66
2022/06/18 11:39:55;;;;;;;9.32;3.70;;;26.80;97.50;;;;;;5053046;28;20132;-63
2022/06/18 11:42:26;;;;;;;6.93;3.30;;;26.90;97.00;;;;;;5053732;28;20047;-66
2022/06/18 11:45:21;;;;;;;9.57;3.63;;;27.10;96.50;;;;;;5052195;28;20051;-70
2022/06/18 11:48:14;;;;;;;6.95;3.53;;;27.10;96.10;;;;;;5043546;28;20068;-69
2022/06/18 11:50:57;;;;;;;5.93;3.08;;;27.00;95.40;;;;;;5053158;28;20045;-65
2022/06/18 11:53:40;;;;;;;6.78;3.65;;;27.00;96.50;;;;;;5052875;28;20048;-67
2022/06/18 11:56:15;;;;;;;8.15;3.50;;;27.00;95.70;;;;;;5052010;28;20056;-65
2022/06/18 11:58:49;;;;;;;4.60;3.22;;;26.80;96.00;;;;;;5052573;28;20048;-64
2022/06/18 12:01:34;;;;;;;6.28;2.75;;;26.70;96.30;;;;;;5052802;28;20361;-67
2022/06/18 12:04:27;;;;;;;8.20;3.95;;;26.50;97.30;;;;;;5052882;28;20049;-65
2022/06/18 12:07:08;;;;;;;8.65;3.50;;;26.30;97.70;;;;;;5052104;28;20449;-65
2022/06/18 12:09:35;;;;;;;7.80;3.28;;;26.20;98.10;;;;;;5051777;28;20041;-65
2022/06/18 12:12:30;;;;;;;7.53;3.08;;;26.10;98.80;;;;;;5051330;28;20041;-71
2022/06/18 12:15:07;;;;;;;5.22;2.90;;;26.30;99.10;;;;;;5052545;28;20045;-69
2022/06/18 12:17:39;;;;;;;6.82;2.70;;;26.40;98.10;;;;;;5053152;28;20044;-67
2022/06/18 12:20:07;;;;;;;4.45;2.75;;;26.20;98.30;;;;;;5052505;28;20049;-69
2022/06/18 12:22:37;;;;;;;7.13;3.58;;;26.00;98.60;;;;;;5052739;28;20047;-64
2022/06/18 12:25:43;;;;;;;15.35;3.67;;;25.80;99.10;;;;;;5051329;28;20041;-67
2022/06/18 12:28:10;;;;;;;10.95;4.20;;;25.80;99.70;;;;;;5051204;28;20461;-67
2022/06/18 12:30:43;;;;;;;11.85;4.80;;;25.40;99.90;;;;;;5053649;28;20068;-71
2022/06/18 12:33:12;;;;;;;8.23;2.75;;;25.20;99.90;;;;;;5055040;28;20469;-70
2022/06/18 12:36:05;;;;;;;9.02;4.32;;;25.20;99.90;;;;;;5056604;28;20045;-66
2022/06/18 12:38:49;;;;;;;7.43;4.35;;;25.00;99.90;;;;;;5039814;28;20131;-69
2022/06/18 12:41:46;;;;;;;9.15;3.50;;;24.80;99.90;;;;;;5056044;28;20044;-71
2022/06/18 12:44:32;;;;;;;9.90;4.15;;;24.30;99.90;;;;;;5056584;28;20414;-65
2022/06/18 12:47:27;;;;;;;6.95;3.88;;;24.20;99.90;;;;;;5055303;28;20079;-68
2022/06/18 12:50:10;;;;;;;6.28;3.70;;;24.20;99.90;;;;;;5055591;28;20123;-69
2022/06/18 12:52:51;;;;;;;9.63;3.80;;;24.20;99.90;;;;;;5054876;28;20049;-66
2022/06/18 12:55:24;;;;;;;7.43;4.03;;;24.20;99.90;;;;;;5040009;28;20098;-66
2022/06/18 12:57:57;;;;;;;8.05;3.50;;;24.10;99.90;;;;;;5055975;28;20057;-68
2022/06/18 13:00:55;;;;;;;6.88;3.15;;;24.10;99.90;;;;;;5055571;28;20390;-68
2022/06/18 13:03:26;;;;;;;8.73;3.92;;;24.10;99.90;;;;;;5054835;28;20088;-69
2022/06/18 13:06:04;;;;;;;5.07;3.30;;;24.30;99.90;;;;;;5054656;28;20041;-65
2022/06/18 13:08:37;;;;;;;8.50;4.28;;;24.40;99.90;;;;;;5038443;28;20045;-69
2022/06/18 13:11:14;;;;;;;10.75;4.45;;;24.30;99.90;;;;;;5056271;28;20060;-68
2022/06/18 13:13:57;;;;;;;40.55;35.78;;;24.10;99.90;;;;;;5056747;28;20059;-69
2022/06/18 13:16:38;;;;;;;8.18;4.95;;;24.00;99.90;;;;;;5054610;28;20040;-69
2022/06/18 13:19:24;;;;;;;8.35;4.43;;;24.10;99.90;;;;;;5055119;28;20052;-71
2022/06/18 13:21:51;;;;;;;7.28;4.30;;;23.80;99.90;;;;;;5054692;28;20075;-69
2022/06/18 13:30:50;;;;;;;8.25;4.45;;;23.00;99.90;;;;;;5054448;28;20128;-72
2022/06/18 13:33:32;;;;;;;11.20;4.53;;;22.70;99.90;;;;;;5054092;28;20045;-72